createdAt,value
2023-04-11T00:01:16.071Z,99838.22
2023-04-11T00:02:48.265Z,99835.28
2023-04-11T00:04:21.145Z,99832.66
2023-04-11T00:05:53.052Z,99829.34
2023-04-11T00:07:24.898Z,99826.09
2023-04-11T00:08:57.094Z,99823.56
2023-04-11T00:10:29.255Z,99814.28
2023-04-11T00:12:02.378Z,99801.47
2023-04-11T00:13:34.474Z,99802.59
2023-04-11T00:15:08.248Z,99797.56
2023-04-11T00:16:41.726Z,99786.22
2023-04-11T00:18:13.543Z,99784.28
2023-04-11T00:19:48.840Z,99772.19
2023-04-11T00:21:20.640Z,99772.19
2023-04-11T00:22:54.247Z,99768.63
2023-04-11T00:24:26.706Z,99764.09
2023-04-11T00:25:58.749Z,99766.19
2023-04-11T00:27:30.565Z,99766.53
2023-04-11T00:29:02.489Z,99760.16
2023-04-11T00:30:34.273Z,99754.50
2023-04-11T00:32:06.502Z,99745.66
2023-04-11T00:33:39.913Z,99748.56
2023-04-11T00:35:12.733Z,99745.75
2023-04-11T00:36:44.747Z,99747.66
2023-04-11T00:38:16.942Z,99743.28
2023-04-11T00:39:53.277Z,99741.91
2023-04-11T00:41:25.272Z,99735.88
2023-04-11T00:42:57.249Z,99730.09
2023-04-11T00:44:29.055Z,99726.28
2023-04-11T00:46:01.403Z,99722.22
2023-04-11T00:47:34.347Z,99726.63
2023-04-11T00:49:06.414Z,99728.06
2023-04-11T00:50:42.439Z,99722.81
2023-04-11T00:52:14.405Z,99720.88
2023-04-11T00:53:46.468Z,99719.97
2023-04-11T00:55:18.295Z,99709.94
2023-04-11T00:56:51.357Z,99713.38
2023-04-11T00:58:23.325Z,99714.06
2023-04-11T00:59:56.070Z,99714.81
2023-04-11T01:01:30.350Z,99718.34
2023-04-11T01:03:02.877Z,99714.44
2023-04-11T01:04:35.158Z,99717.97
2023-04-11T01:06:13.336Z,99714.56
2023-04-11T01:07:48.913Z,99717.97
2023-04-11T01:09:23.522Z,99709.63
2023-04-11T01:10:55.441Z,99713.47
2023-04-11T01:12:27.793Z,99714.91
2023-04-11T01:14:00.052Z,99711.63
2023-04-11T01:15:32.001Z,99715.75
2023-04-11T01:17:04.119Z,99721.97
2023-04-11T01:18:36.719Z,99720.84
2023-04-11T01:20:10.165Z,99726.25
2023-04-11T01:21:42.261Z,99742.25
2023-04-11T01:23:15.106Z,99729.66
2023-04-11T01:24:47.197Z,99723.28
2023-04-11T01:26:19.067Z,99724.00
2023-04-11T01:27:51.110Z,99720.44
2023-04-11T01:29:23.173Z,99719.47
2023-04-11T01:30:55.069Z,99721.19
2023-04-11T01:32:27.066Z,99720.06
2023-04-11T01:34:00.843Z,99716.38
2023-04-11T01:35:32.884Z,99708.44
2023-04-11T01:37:04.717Z,99704.91
2023-04-11T01:38:36.586Z,99707.31
2023-04-11T01:40:08.970Z,99707.31
2023-04-11T01:41:42.234Z,99712.56
2023-04-11T01:43:14.353Z,99705.50
2023-04-11T01:44:48.578Z,99698.38
2023-04-11T01:46:21.468Z,99698.97
2023-04-11T01:47:54.769Z,99687.22
2023-04-11T01:49:26.787Z,99663.59
2023-04-11T01:50:58.630Z,99665.16
2023-04-11T01:52:30.502Z,99658.78
2023-04-11T01:54:02.322Z,99659.50
2023-04-11T01:55:34.152Z,99666.13
2023-04-11T01:57:06.746Z,99655.34
2023-04-11T01:58:38.573Z,99643.34
2023-04-11T02:00:11.233Z,99645.31
2023-04-11T02:01:50.619Z,99641.63
2023-04-11T02:03:22.840Z,99637.97
2023-04-11T02:04:54.971Z,99631.00
2023-04-11T02:06:27.893Z,99630.84
2023-04-11T02:07:59.683Z,99631.72
2023-04-11T02:09:31.535Z,99617.28
2023-04-11T02:11:04.267Z,99617.13
2023-04-11T02:12:36.058Z,99605.41
2023-04-11T02:14:10.029Z,99599.13
2023-04-11T02:15:41.983Z,99597.16
2023-04-11T02:17:14.321Z,99598.28
2023-04-11T02:18:46.551Z,99589.25
2023-04-11T02:20:18.474Z,99578.75
2023-04-11T02:21:50.500Z,99582.41
2023-04-11T02:23:23.567Z,99569.09
2023-04-11T02:24:56.660Z,99569.09
2023-04-11T02:26:28.754Z,99564.84
2023-04-11T02:28:01.112Z,99566.81
2023-04-11T02:29:33.153Z,99566.13
2023-04-11T02:31:05.128Z,99568.81
2023-04-11T02:32:38.054Z,99559.72
2023-04-11T02:34:09.935Z,99563.16
2023-04-11T02:35:42.993Z,99560.47
2023-04-11T02:37:14.859Z,99558.72
2023-04-11T02:38:46.659Z,99557.50
2023-04-11T02:40:18.519Z,99560.19
2023-04-11T02:41:51.378Z,99547.97
2023-04-11T02:43:23.179Z,99546.00
2023-04-11T02:44:55.932Z,99542.19
2023-04-11T02:46:32.297Z,99547.41
2023-04-11T02:48:05.379Z,99544.88
2023-04-11T02:49:44.181Z,99545.56
2023-04-11T02:51:19.198Z,99537.38
2023-04-11T02:52:51.175Z,99539.91
2023-04-11T02:54:26.675Z,99538.09
2023-04-11T02:55:59.878Z,99541.63
2023-04-11T02:57:31.694Z,99531.56
2023-04-11T02:59:03.668Z,99526.16
2023-04-11T03:00:37.888Z,99534.41
2023-04-11T03:02:12.517Z,99533.69
2023-04-11T03:03:44.946Z,99534.53
2023-04-11T03:05:19.324Z,99534.69
2023-04-11T03:06:54.289Z,99534.69
2023-04-11T03:08:26.231Z,99526.59
2023-04-11T03:10:00.179Z,99533.25
2023-04-11T03:11:32.007Z,99522.63
2023-04-11T03:13:03.989Z,99520.78
2023-04-11T03:14:35.849Z,99521.78
2023-04-11T03:16:08.292Z,99523.47
2023-04-11T03:17:40.261Z,99517.13
2023-04-11T03:19:14.165Z,99515.38
2023-04-11T03:20:46.013Z,99518.94
2023-04-11T03:22:20.077Z,99513.44
2023-04-11T03:23:53.439Z,99510.44
2023-04-11T03:25:25.477Z,99521.06
2023-04-11T03:26:58.577Z,99512.31
2023-04-11T03:28:30.669Z,99515.41
2023-04-11T03:30:02.657Z,99523.34
2023-04-11T03:31:44.253Z,99517.69
2023-04-11T03:33:17.202Z,99515.84
2023-04-11T03:34:51.073Z,99509.34
2023-04-11T03:36:23.314Z,99507.59
2023-04-11T03:37:55.100Z,99508.34
2023-04-11T03:39:26.941Z,99511.03
2023-04-11T03:40:58.836Z,99504.50
2023-04-11T03:42:31.429Z,99499.97
2023-04-11T03:44:05.399Z,99497.00
2023-04-11T03:45:37.277Z,99497.84
2023-04-11T03:47:12.370Z,99491.63
2023-04-11T03:48:47.805Z,99488.91
2023-04-11T03:50:21.228Z,99489.94
2023-04-11T03:51:56.494Z,99499.69
2023-04-11T03:53:29.632Z,99494.31
2023-04-11T03:55:07.384Z,99499.97
2023-04-11T03:56:39.429Z,99498.97
2023-04-11T03:58:14.210Z,99491.91
2023-04-11T03:59:50.834Z,99495.72
2023-04-11T04:01:22.679Z,99494.88
2023-04-11T04:02:57.159Z,99491.34
2023-04-11T04:04:29.290Z,99488.75
2023-04-11T04:06:24.384Z,99494.31
2023-04-11T04:07:56.248Z,99488.19
2023-04-11T04:09:42.882Z,99492.75
2023-04-11T04:11:15.423Z,99495.44
2023-04-11T04:12:48.279Z,99496.56
2023-04-11T04:14:24.061Z,99496.84
2023-04-11T04:15:58.395Z,99494.31
2023-04-11T04:17:32.263Z,99494.31
2023-04-11T04:19:04.947Z,99491.72
2023-04-11T04:20:37.330Z,99484.81
2023-04-11T04:22:12.136Z,99489.31
2023-04-11T04:23:48.992Z,99490.19
2023-04-11T04:25:20.842Z,99493.00
2023-04-11T04:26:58.017Z,99486.94
2023-04-11T04:28:47.571Z,99485.38
2023-04-11T04:30:29.028Z,99490.03
2023-04-11T04:32:11.864Z,99494.56
2023-04-11T04:33:49.730Z,99493.16
2023-04-11T04:35:28.955Z,99492.59
2023-04-11T04:37:02.776Z,99492.88
2023-04-11T04:38:44.342Z,99493.13
2023-04-11T04:40:20.830Z,99494.53
2023-04-11T04:42:04.432Z,99496.91
2023-04-11T04:43:42.841Z,99500.72
2023-04-11T04:45:32.912Z,99505.78
2023-04-11T04:47:05.213Z,99499.25
2023-04-11T04:48:37.260Z,99497.13
2023-04-11T04:50:09.485Z,99506.56
2023-04-11T04:51:41.302Z,99503.72
2023-04-11T04:53:13.713Z,99506.97
2023-04-11T04:54:51.198Z,99499.44
2023-04-11T04:56:23.720Z,99497.41
2023-04-11T04:57:57.554Z,99495.28
2023-04-11T04:59:30.220Z,99488.59
2023-04-11T05:01:11.508Z,99482.06
2023-04-11T05:02:43.775Z,99478.78
2023-04-11T05:04:16.211Z,99487.38
2023-04-11T05:05:53.762Z,99481.69
2023-04-11T05:07:26.679Z,99474.00
2023-04-11T05:09:00.992Z,99475.25
2023-04-11T05:10:32.932Z,99471.00
2023-04-11T05:12:06.698Z,99474.81
2023-04-11T05:13:43.075Z,99469.81
2023-04-11T05:15:15.389Z,99469.25
2023-04-11T05:16:47.675Z,99470.22
2023-04-11T05:18:19.600Z,99469.50
2023-04-11T05:19:51.697Z,99468.66
2023-04-11T05:21:24.618Z,99466.22
2023-04-11T05:22:57.641Z,99462.69
2023-04-11T05:24:29.703Z,99454.88
2023-04-11T05:26:03.517Z,99451.22
2023-04-11T05:27:36.869Z,99458.56
2023-04-11T05:29:09.182Z,99448.66
2023-04-11T05:30:41.009Z,99453.91
2023-04-11T05:32:12.836Z,99451.97
2023-04-11T05:33:45.065Z,99451.22
2023-04-11T05:35:17.504Z,99455.63
2023-04-11T05:36:53.184Z,99452.66
2023-04-11T05:38:25.746Z,99460.88
2023-04-11T05:39:57.707Z,99461.44
2023-04-11T05:41:29.623Z,99460.34
2023-04-11T05:43:01.400Z,99454.13
2023-04-11T05:44:33.163Z,99465.44
2023-04-11T05:46:05.292Z,99461.03
2023-04-11T05:47:37.183Z,99452.88
2023-04-11T05:49:09.056Z,99453.59
2023-04-11T05:50:41.415Z,99452.59
2023-04-11T05:52:13.204Z,99446.25
2023-04-11T05:53:45.093Z,99452.19
2023-04-11T05:55:17.298Z,99460.25
2023-04-11T05:56:49.073Z,99447.66
2023-04-11T05:58:21.164Z,99453.19
2023-04-11T05:59:53.267Z,99446.97
2023-04-11T06:01:26.361Z,99445.97
2023-04-11T06:03:00.467Z,99451.94
2023-04-11T06:04:32.861Z,99443.88
2023-04-11T06:06:05.032Z,99447.28
2023-04-11T06:07:37.448Z,99441.06
2023-04-11T06:09:10.984Z,99440.06
2023-04-11T06:10:43.033Z,99439.81
2023-04-11T06:12:14.822Z,99441.50
2023-04-11T06:13:46.714Z,99444.91
2023-04-11T06:15:18.712Z,99448.34
2023-04-11T06:16:50.565Z,99441.97
2023-04-11T06:18:22.339Z,99449.19
2023-04-11T06:19:54.239Z,99451.59
2023-04-11T06:21:26.431Z,99452.44
2023-04-11T06:22:59.456Z,99455.13
2023-04-11T06:24:38.590Z,99452.44
2023-04-11T06:26:11.457Z,99453.88
2023-04-11T06:27:43.440Z,99454.59
2023-04-11T06:29:15.471Z,99458.97
2023-04-11T06:30:47.278Z,99464.22
2023-04-11T06:32:19.080Z,99466.78
2023-04-11T06:33:51.066Z,99460.56
2023-04-11T06:35:25.197Z,99470.19
2023-04-11T06:36:56.986Z,99475.41
2023-04-11T06:38:28.749Z,99477.09
2023-04-11T06:40:00.974Z,99471.63
2023-04-11T06:41:32.760Z,99481.38
2023-04-11T06:43:04.912Z,99485.75
2023-04-11T06:44:36.864Z,99487.47
2023-04-11T06:46:08.729Z,99489.16
2023-04-11T06:47:40.916Z,99495.13
2023-04-11T06:49:12.757Z,99485.22
2023-04-11T06:50:46.093Z,99493.16
2023-04-11T06:52:17.876Z,99499.38
2023-04-11T06:53:49.714Z,99492.16
2023-04-11T06:55:23.168Z,99500.13
2023-04-11T06:56:57.385Z,99499.22
2023-04-11T06:58:29.212Z,99509.88
2023-04-11T07:00:01.122Z,99506.34
2023-04-11T07:01:38.026Z,99502.81
2023-04-11T07:03:10.083Z,99504.59
2023-04-11T07:04:42.704Z,99506.44
2023-04-11T07:06:14.668Z,99509.97
2023-04-11T07:07:46.731Z,99500.22
2023-04-11T07:09:18.807Z,99502.06
2023-04-11T07:10:50.918Z,99504.75
2023-04-11T07:12:22.709Z,99503.91
2023-04-11T07:14:00.049Z,99505.75
2023-04-11T07:15:31.859Z,99504.75
2023-04-11T07:17:03.633Z,99511.81
2023-04-11T07:18:35.530Z,99510.88
2023-04-11T07:20:11.419Z,99506.19
2023-04-11T07:21:43.214Z,99503.50
2023-04-11T07:23:15.077Z,99511.28
2023-04-11T07:24:51.141Z,99514.81
2023-04-11T07:26:24.047Z,99513.72
2023-04-11T07:27:55.875Z,99510.75
2023-04-11T07:29:28.797Z,99514.19
2023-04-11T07:31:00.855Z,99513.91
2023-04-11T07:32:32.649Z,99511.91
2023-04-11T07:34:04.524Z,99519.88
2023-04-11T07:35:36.377Z,99509.69
2023-04-11T07:37:08.185Z,99520.88
2023-04-11T07:38:40.016Z,99525.28
2023-04-11T07:40:14.448Z,99519.63
2023-04-11T07:41:46.339Z,99514.94
2023-04-11T07:43:18.172Z,99520.06
2023-04-11T07:44:50.042Z,99525.31
2023-04-11T07:46:21.849Z,99524.19
2023-04-11T07:47:53.665Z,99527.56
2023-04-11T07:49:25.471Z,99533.53
2023-04-11T07:50:57.290Z,99528.03
2023-04-11T07:52:29.062Z,99524.22
2023-04-11T07:54:01.250Z,99527.50
2023-04-11T07:55:33.016Z,99517.41
2023-04-11T07:57:04.832Z,99525.25
2023-04-11T07:58:36.625Z,99521.44
2023-04-11T08:00:11.671Z,99514.94
2023-04-11T08:01:43.943Z,99523.69
2023-04-11T08:03:17.172Z,99519.91
2023-04-11T08:04:49.447Z,99519.78
2023-04-11T08:06:21.409Z,99512.38
2023-04-11T08:07:53.215Z,99513.25
2023-04-11T08:09:25.539Z,99508.47
2023-04-11T08:10:57.325Z,99510.16
2023-04-11T08:12:29.122Z,99511.72
2023-04-11T08:14:01.013Z,99513.13
2023-04-11T08:15:32.858Z,99512.84
2023-04-11T08:17:08.264Z,99503.38
2023-04-11T08:18:46.651Z,99514.28
2023-04-11T08:20:19.139Z,99508.47
2023-04-11T08:21:52.853Z,99518.66
2023-04-11T08:23:24.946Z,99513.72
2023-04-11T08:24:56.850Z,99516.97
2023-04-11T08:26:28.706Z,99511.16
2023-04-11T08:28:00.722Z,99509.91
2023-04-11T08:29:32.548Z,99515.84
2023-04-11T08:31:05.638Z,99518.38
2023-04-11T08:32:38.414Z,99522.63
2023-04-11T08:34:10.942Z,99518.09
2023-04-11T08:35:43.333Z,99519.81
2023-04-11T08:37:15.161Z,99513.44
2023-04-11T08:38:47.116Z,99517.69
2023-04-11T08:40:18.903Z,99524.78
2023-04-11T08:41:51.538Z,99516.69
2023-04-11T08:43:23.958Z,99513.84
2023-04-11T08:44:57.508Z,99521.78
2023-04-11T08:46:32.558Z,99528.88
2023-04-11T08:48:05.728Z,99533.13
2023-04-11T08:49:37.666Z,99539.50
2023-04-11T08:51:09.461Z,99544.06
2023-04-11T08:52:45.098Z,99540.50
2023-04-11T08:54:17.267Z,99545.03
2023-04-11T08:55:49.374Z,99533.41
2023-04-11T08:57:27.781Z,99533.41
2023-04-11T08:58:59.816Z,99540.66
2023-04-11T09:00:32.720Z,99535.09
2023-04-11T09:02:09.654Z,99531.44
2023-04-11T09:03:53.806Z,99541.03
2023-04-11T09:05:36.379Z,99544.91
2023-04-11T09:07:08.449Z,99549.84
2023-04-11T09:08:40.467Z,99545.16
2023-04-11T09:10:22.148Z,99546.75
2023-04-11T09:11:54.931Z,99542.75
2023-04-11T09:13:28.069Z,99545.03
2023-04-11T09:15:17.779Z,99546.88
2023-04-11T09:16:55.983Z,99537.38
2023-04-11T09:18:38.673Z,99544.16
2023-04-11T09:20:18.126Z,99541.31
2023-04-11T09:21:50.694Z,99527.53
2023-04-11T09:23:25.420Z,99524.72
2023-04-11T09:25:03.548Z,99529.81
2023-04-11T09:26:35.417Z,99528.38
2023-04-11T09:28:09.529Z,99533.03
2023-04-11T09:29:43.310Z,99523.66
2023-04-11T09:31:15.148Z,99530.69
2023-04-11T09:32:48.872Z,99524.41
2023-04-11T09:34:24.068Z,99537.00
2023-04-11T09:35:57.088Z,99520.78
2023-04-11T09:37:54.932Z,99518.03
2023-04-11T09:39:29.539Z,99513.97
2023-04-11T09:41:03.297Z,99510.38
2023-04-11T09:42:35.667Z,99504.06
2023-04-11T09:44:07.551Z,99491.50
2023-04-11T09:45:47.991Z,99487.88
2023-04-11T09:47:24.096Z,99500.84
2023-04-11T09:48:56.835Z,99496.34
2023-04-11T09:50:28.850Z,99488.00
2023-04-11T09:52:01.363Z,99489.44
2023-04-11T09:53:37.351Z,99484.94
2023-04-11T09:55:11.948Z,99485.50
2023-04-11T09:56:44.178Z,99485.97
2023-04-11T09:58:16.117Z,99478.44
2023-04-11T09:59:48.801Z,99479.34
2023-04-11T10:01:21.185Z,99477.34
2023-04-11T10:02:53.822Z,99483.63
2023-04-11T10:04:28.268Z,99477.41
2023-04-11T10:06:04.136Z,99481.31
2023-04-11T10:08:08.707Z,99479.28
2023-04-11T10:09:43.360Z,99482.03
2023-04-11T10:11:15.487Z,99488.81
2023-04-11T10:12:47.672Z,99480.53
2023-04-11T10:14:37.550Z,99483.22
2023-04-11T10:16:20.524Z,99472.06
2023-04-11T10:18:12.615Z,99481.72
2023-04-11T10:19:45.394Z,99473.09
2023-04-11T10:21:29.276Z,99465.53
2023-04-11T10:23:01.974Z,99466.56
2023-04-11T10:24:33.853Z,99468.09
2023-04-11T10:26:08.709Z,99463.38
2023-04-11T10:27:53.730Z,99465.59
2023-04-11T10:29:28.291Z,99466.94
2023-04-11T10:31:04.680Z,99464.91
2023-04-11T10:32:36.958Z,99472.38
2023-04-11T10:34:17.037Z,99458.22
2023-04-11T10:36:06.628Z,99461.91
2023-04-11T10:37:38.554Z,99454.66
2023-04-11T10:39:10.390Z,99451.00
2023-04-11T10:41:21.628Z,99456.94
2023-04-11T10:42:53.624Z,99456.75
2023-04-11T10:44:25.506Z,99458.50
2023-04-11T10:46:17.879Z,99469.16
2023-04-11T10:47:58.932Z,99504.44
2023-04-11T10:49:38.889Z,99539.16
2023-04-11T10:51:31.673Z,99563.53
2023-04-11T10:53:09.686Z,99569.41
2023-04-11T10:54:41.671Z,99560.28
2023-04-11T10:56:15.544Z,99574.19
2023-04-11T10:58:10.874Z,99570.31
2023-04-11T10:59:42.579Z,99575.31
2023-04-11T11:01:26.122Z,99577.06
2023-04-11T11:03:15.748Z,99550.19
2023-04-11T11:04:48.962Z,99541.84
2023-04-11T11:06:21.538Z,99551.91
2023-04-11T11:07:54.132Z,99540.91
2023-04-11T11:09:28.613Z,99539.03
2023-04-11T11:11:02.020Z,99537.50
2023-04-11T11:12:34.058Z,99532.84
2023-04-11T11:14:05.949Z,99524.06
2023-04-11T11:15:38.047Z,99526.59
2023-04-11T11:17:11.985Z,99525.03
2023-04-11T11:18:55.203Z,99527.56
2023-04-11T11:20:27.062Z,99539.31
2023-04-11T11:22:03.985Z,99542.72
2023-04-11T11:23:36.496Z,99549.41
2023-04-11T11:25:09.219Z,99576.34
2023-04-11T11:26:43.293Z,99591.22
2023-04-11T11:28:15.104Z,99602.88
2023-04-11T11:29:46.972Z,99629.50
2023-04-11T11:31:18.836Z,99632.94
2023-04-11T11:32:50.922Z,99645.22
2023-04-11T11:34:31.097Z,99647.03
2023-04-11T11:36:05.089Z,99649.56
2023-04-11T11:37:36.868Z,99657.66
2023-04-11T11:39:10.562Z,99653.00
2023-04-11T11:40:42.491Z,99647.06
2023-04-11T11:42:14.914Z,99651.59
2023-04-11T11:43:47.254Z,99633.63
2023-04-11T11:45:21.939Z,99632.72
2023-04-11T11:47:12.901Z,99637.22
2023-04-11T11:48:59.374Z,99626.50
2023-04-11T11:50:32.939Z,99627.50
2023-04-11T11:52:04.747Z,99628.63
2023-04-11T11:53:37.111Z,99628.53
2023-04-11T11:55:17.959Z,99638.28
2023-04-11T11:56:54.694Z,99633.03
2023-04-11T11:58:26.689Z,99629.50
2023-04-11T12:00:01.481Z,99636.56
2023-04-11T12:01:36.782Z,99635.38
2023-04-11T12:03:12.590Z,99627.69
2023-04-11T12:04:44.780Z,99640.47
2023-04-11T12:06:17.565Z,99636.91
2023-04-11T12:07:54.929Z,99630.44
2023-04-11T12:09:32.009Z,99632.72
2023-04-11T12:11:12.385Z,99626.94
2023-04-11T12:12:53.066Z,99628.94
2023-04-11T12:14:25.877Z,99633.78
2023-04-11T12:16:01.551Z,99639.41
2023-04-11T12:17:38.061Z,99636.84
2023-04-11T12:19:09.980Z,99632.31
2023-04-11T12:20:41.832Z,99643.16
2023-04-11T12:22:13.830Z,99635.06
2023-04-11T12:23:45.580Z,99637.81
2023-04-11T12:25:17.428Z,99628.78
2023-04-11T12:27:05.439Z,99641.16
2023-04-11T12:28:38.557Z,99633.53
2023-04-11T12:30:12.589Z,99628.31
2023-04-11T12:31:45.976Z,99630.41
2023-04-11T12:33:18.018Z,99638.94
2023-04-11T12:34:49.882Z,99631.22
2023-04-11T12:36:22.140Z,99630.34
2023-04-11T12:37:53.913Z,99622.66
2023-04-11T12:39:26.036Z,99616.66
2023-04-11T12:41:14.372Z,99625.19
2023-04-11T12:42:56.885Z,99619.56
2023-04-11T12:44:30.837Z,99625.09
2023-04-11T12:46:02.801Z,99621.50
2023-04-11T12:47:35.661Z,99610.28
2023-04-11T12:49:07.465Z,99618.63
2023-04-11T12:50:39.269Z,99625.44
2023-04-11T12:52:11.078Z,99619.59
2023-04-11T12:53:42.934Z,99612.75
2023-04-11T12:55:14.777Z,99618.69
2023-04-11T12:56:46.575Z,99608.56
2023-04-11T12:58:18.739Z,99622.06
2023-04-11T12:59:51.384Z,99614.84
2023-04-11T13:01:23.760Z,99610.41
2023-04-11T13:02:56.645Z,99612.13
2023-04-11T13:04:28.888Z,99619.53
2023-04-11T13:06:00.881Z,99626.63
2023-04-11T13:07:39.242Z,99622.22
2023-04-11T13:09:11.817Z,99628.66
2023-04-11T13:10:43.627Z,99623.25
2023-04-11T13:12:15.486Z,99626.91
2023-04-11T13:13:47.326Z,99626.91
2023-04-11T13:15:19.173Z,99620.69
2023-04-11T13:16:51.071Z,99625.22
2023-04-11T13:18:23.180Z,99634.34
2023-04-11T13:19:55.035Z,99634.47
2023-04-11T13:21:26.971Z,99632.50
2023-04-11T13:22:58.774Z,99633.47
2023-04-11T13:24:32.221Z,99628.06
2023-04-11T13:26:04.198Z,99634.34
2023-04-11T13:27:36.442Z,99628.66
2023-04-11T13:29:08.294Z,99631.72
2023-04-11T13:30:41.230Z,99631.44
2023-04-11T13:32:13.023Z,99640.47
2023-04-11T13:33:45.737Z,99643.97
2023-04-11T13:35:17.550Z,99646.59
2023-04-11T13:36:49.460Z,99635.84
2023-04-11T13:38:22.096Z,99636.09
2023-04-11T13:39:53.931Z,99626.81
2023-04-11T13:41:25.772Z,99619.56
2023-04-11T13:42:57.621Z,99615.34
2023-04-11T13:44:29.584Z,99610.38
2023-04-11T13:46:01.432Z,99616.25
2023-04-11T13:47:35.487Z,99615.84
2023-04-11T13:49:08.661Z,99626.28
2023-04-11T13:50:40.793Z,99645.66
2023-04-11T13:52:12.589Z,99643.72
2023-04-11T13:53:44.399Z,99637.53
2023-04-11T13:55:16.398Z,99636.03
2023-04-11T13:56:48.192Z,99631.69
2023-04-11T13:58:20.051Z,99623.91
2023-04-11T13:59:51.830Z,99624.81
2023-04-11T14:01:23.985Z,99625.69
2023-04-11T14:02:56.053Z,99620.34
2023-04-11T14:04:27.970Z,99617.38
2023-04-11T14:06:00.564Z,99616.81
2023-04-11T14:07:32.373Z,99622.34
2023-04-11T14:09:05.706Z,99630.16
2023-04-11T14:10:37.585Z,99630.28
2023-04-11T14:12:09.402Z,99634.22
2023-04-11T14:13:41.253Z,99628.28
2023-04-11T14:15:13.028Z,99626.03
2023-04-11T14:16:44.865Z,99619.41
2023-04-11T14:18:16.714Z,99633.22
2023-04-11T14:19:48.490Z,99640.13
2023-04-11T14:21:21.257Z,99637.25
2023-04-11T14:22:53.097Z,99638.25
2023-04-11T14:24:25.221Z,99630.44
2023-04-11T14:25:57.144Z,99652.38
2023-04-11T14:27:29.429Z,99645.19
2023-04-11T14:29:01.443Z,99641.47
2023-04-11T14:30:33.433Z,99646.28
2023-04-11T14:32:07.096Z,99648.00
2023-04-11T14:33:39.004Z,99652.56
2023-04-11T14:35:10.976Z,99653.72
2023-04-11T14:36:42.824Z,99654.75
2023-04-11T14:38:17.750Z,99673.88
2023-04-11T14:39:49.514Z,99673.84
2023-04-11T14:41:21.350Z,99677.66
2023-04-11T14:42:53.153Z,99681.47
2023-04-11T14:44:24.997Z,99678.13
2023-04-11T14:45:57.870Z,99681.91
2023-04-11T14:47:29.744Z,99689.53
2023-04-11T14:49:02.242Z,99698.31
2023-04-11T14:50:34.158Z,99706.06
2023-04-11T14:52:06.200Z,99711.16
2023-04-11T14:53:38.011Z,99712.91
2023-04-11T14:55:10.193Z,99717.63
2023-04-11T14:56:42.514Z,99713.16
2023-04-11T14:58:14.337Z,99716.94
2023-04-11T14:59:46.488Z,99717.97
2023-04-11T15:01:19.177Z,99718.84
2023-04-11T15:02:54.980Z,99715.06
2023-04-11T15:04:26.936Z,99725.41
2023-04-11T15:05:58.785Z,99729.28
2023-04-11T15:07:30.940Z,99730.06
2023-04-11T15:09:04.568Z,99729.97
2023-04-11T15:10:36.400Z,99712.59
2023-04-11T15:12:08.184Z,99710.22
2023-04-11T15:13:39.999Z,99708.72
2023-04-11T15:15:12.478Z,99708.66
2023-04-11T15:16:44.371Z,99707.84
2023-04-11T15:18:28.204Z,99706.19
2023-04-11T15:20:00.024Z,99707.59
2023-04-11T15:21:32.562Z,99700.28
2023-04-11T15:23:04.363Z,99695.28
2023-04-11T15:24:36.121Z,99697.38
2023-04-11T15:26:08.729Z,99693.97
2023-04-11T15:27:41.417Z,99694.94
2023-04-11T15:29:17.047Z,99694.34
2023-04-11T15:30:51.174Z,99694.94
2023-04-11T15:32:23.024Z,99695.81
2023-04-11T15:33:57.500Z,99692.47
2023-04-11T15:35:29.720Z,99693.81
2023-04-11T15:37:01.530Z,99690.94
2023-04-11T15:38:35.610Z,99700.38
2023-04-11T15:40:09.713Z,99696.38
2023-04-11T15:41:41.650Z,99699.19
2023-04-11T15:43:13.590Z,99689.56
2023-04-11T15:44:45.850Z,99690.63
2023-04-11T15:46:17.696Z,99690.00
2023-04-11T15:47:49.804Z,99695.00
2023-04-11T15:49:21.708Z,99700.13
2023-04-11T15:50:53.520Z,99702.84
2023-04-11T15:52:25.341Z,99694.94
2023-04-11T15:53:57.290Z,99686.16
2023-04-11T15:55:29.291Z,99695.53
2023-04-11T15:57:02.559Z,99705.88
2023-04-11T15:58:34.345Z,99699.34
2023-04-11T16:00:09.749Z,99694.66
2023-04-11T16:01:41.956Z,99691.97
2023-04-11T16:03:14.094Z,99699.06
2023-04-11T16:04:47.843Z,99697.34
2023-04-11T16:06:20.643Z,99699.19
2023-04-11T16:07:52.481Z,99706.44
2023-04-11T16:09:24.338Z,99699.34
2023-04-11T16:10:56.282Z,99708.44
2023-04-11T16:12:28.208Z,99710.25
2023-04-11T16:14:00.028Z,99709.13
2023-04-11T16:15:32.249Z,99709.59
2023-04-11T16:17:06.642Z,99703.66
2023-04-11T16:18:38.835Z,99694.00
2023-04-11T16:20:18.370Z,99702.22
2023-04-11T16:21:50.365Z,99703.38
2023-04-11T16:23:22.169Z,99709.91
2023-04-11T16:24:54.579Z,99705.75
2023-04-11T16:26:27.228Z,99709.03
2023-04-11T16:27:59.281Z,99715.69
2023-04-11T16:29:31.091Z,99722.66
2023-04-11T16:31:03.146Z,99725.06
2023-04-11T16:32:35.138Z,99726.91
2023-04-11T16:34:06.971Z,99716.97
2023-04-11T16:35:38.827Z,99724.22
2023-04-11T16:37:10.669Z,99721.81
2023-04-11T16:38:42.477Z,99724.78
2023-04-11T16:40:14.536Z,99723.22
2023-04-11T16:41:46.348Z,99717.41
2023-04-11T16:43:18.146Z,99710.59
2023-04-11T16:44:50.114Z,99718.09
2023-04-11T16:46:21.984Z,99704.50
2023-04-11T16:47:54.048Z,99703.78
2023-04-11T16:49:25.867Z,99711.03
2023-04-11T16:50:58.099Z,99720.97
2023-04-11T16:52:30.064Z,99716.53
2023-04-11T16:54:04.101Z,99708.44
2023-04-11T16:55:36.138Z,99698.69
2023-04-11T16:57:07.997Z,99700.53
2023-04-11T16:58:39.812Z,99701.53
2023-04-11T17:00:16.057Z,99692.72
2023-04-11T17:01:48.094Z,99699.97
2023-04-11T17:03:20.423Z,99706.47
2023-04-11T17:04:52.519Z,99704.91
2023-04-11T17:06:24.340Z,99702.50
2023-04-11T17:07:56.251Z,99710.03
2023-04-11T17:09:28.082Z,99713.16
2023-04-11T17:11:07.417Z,99708.28
2023-04-11T17:12:39.222Z,99708.72
2023-04-11T17:14:11.664Z,99718.31
2023-04-11T17:15:43.462Z,99717.19
2023-04-11T17:17:15.361Z,99721.44
2023-04-11T17:18:47.306Z,99720.28
2023-04-11T17:20:19.599Z,99719.13
2023-04-11T17:21:51.405Z,99715.41
2023-04-11T17:23:35.187Z,99720.50
2023-04-11T17:25:16.222Z,99714.94
2023-04-11T17:26:48.017Z,99716.72
2023-04-11T17:28:20.798Z,99721.94
2023-04-11T17:29:52.864Z,99725.44
2023-04-11T17:31:27.777Z,99729.78
2023-04-11T17:33:00.201Z,99732.41
2023-04-11T17:34:32.100Z,99737.00
2023-04-11T17:36:05.391Z,99734.25
2023-04-11T17:37:37.242Z,99734.44
2023-04-11T17:39:11.576Z,99732.63
2023-04-11T17:40:43.633Z,99740.78
2023-04-11T17:42:15.471Z,99739.09
2023-04-11T17:43:47.270Z,99740.00
2023-04-11T17:45:19.799Z,99737.47
2023-04-11T17:46:51.893Z,99746.53
2023-04-11T17:48:24.241Z,99738.50
2023-04-11T17:49:56.990Z,99741.31
2023-04-11T17:51:29.397Z,99754.03
2023-04-11T17:53:01.912Z,99753.16
2023-04-11T17:54:34.207Z,99759.63
2023-04-11T17:56:06.409Z,99759.59
2023-04-11T17:57:38.921Z,99766.91
2023-04-11T17:59:11.843Z,99767.00
2023-04-11T18:00:54.852Z,99763.47
2023-04-11T18:02:29.492Z,99775.13
2023-04-11T18:04:07.734Z,99781.41
2023-04-11T18:05:39.648Z,99777.72
2023-04-11T18:07:11.518Z,99782.06
2023-04-11T18:08:51.011Z,99780.16
2023-04-11T18:10:24.896Z,99774.63
2023-04-11T18:11:57.550Z,99782.47
2023-04-11T18:13:29.332Z,99789.34
2023-04-11T18:15:01.143Z,99800.63
2023-04-11T18:16:33.090Z,99805.66
2023-04-11T18:18:08.180Z,99812.44
2023-04-11T18:19:40.016Z,99819.06
2023-04-11T18:21:11.815Z,99829.28